Terminal Aerodrome Forecast
Issued by NWS

Home | Current Version | Previous Version | Text Only | Print | Product List | Glossary On
Versions: 1 2 3 4 5 6 7 8 9 10 11 12 13 14 15 16 17 18 19 20 21
000
FTUS41 KBOX 210528
TAFHYA
TAF
KHYA 210528Z 2106/2206 23015KT 1/2SM FG OVC003 WS020/26040KT
     FM210800 23015KT 1/4SM FG OVC002
     FM211800 22016KT 3/4SM BR OVC003
     FM212000 22016KT 3SM BR OVC003
     FM220200 26010KT 2SM BR OVC008
     FM220500 32010KT P6SM OVC015=

USA.gov is the U.S. government's official web portal to all federal, state and local government web resources and services.